Time;durP1;ratioP1;P1;durP2;ratioP2;P2;SDS_P1;SDS_P2;PMS_P1;PMS_P2;Temp;Humidity;BMP_temperature;BMP_pressure;BME280_temperature;BME280_humidity;BME280_pressure;Samples;Min_cycle;Max_cycle;Signal;HPM_P1;HPM_P2
2022/07/14 00:07:43;;;;;;;3.30;3.00;;;;;;;17.73;55.68;99325.62;434464;1267;71343;-56
2022/07/14 00:17:49;;;;;;;4.30;2.90;;;;;;;17.46;56.49;99319.61;434212;1266;60580;-56
2022/07/14 00:27:56;;;;;;;3.10;2.80;;;;;;;17.19;57.89;99308.72;434124;1267;60798;-55
2022/07/14 00:38:04;;;;;;;4.10;2.80;;;;;;;16.96;58.65;99313.73;433994;1267;72801;-55
2022/07/14 00:48:10;;;;;;;2.30;2.10;;;;;;;16.66;59.81;99324.32;434384;1267;69653;-56
2022/07/14 00:58:16;;;;;;;3.00;2.80;;;;;;;16.39;60.16;99315.16;434650;1267;70432;-57
2022/07/14 01:08:22;;;;;;;4.80;3.00;;;;;;;16.19;61.21;99305.80;434337;1266;60587;-58
2022/07/14 01:18:28;;;;;;;3.80;2.90;;;;;;;15.98;61.96;99314.41;434434;1267;60591;-56
2022/07/14 01:28:34;;;;;;;3.50;2.60;;;;;;;15.79;62.57;99315.43;434403;1266;72820;-56
2022/07/14 01:38:40;;;;;;;5.20;3.00;;;;;;;15.59;62.63;99307.45;434570;1268;68838;-58
2022/07/14 01:48:45;;;;;;;6.60;3.20;;;;;;;15.58;62.64;99300.34;434313;1265;71565;-56
2022/07/14 01:58:51;;;;;;;8.50;3.00;;;;;;;15.49;63.37;99301.48;434415;1268;60584;-55
2022/07/14 02:08:57;;;;;;;16.30;4.20;;;;;;;15.29;64.24;99287.69;434558;1268;60600;-59
2022/07/14 02:19:04;;;;;;;3.00;2.60;;;;;;;15.13;64.95;99287.17;434952;1267;73998;-55
2022/07/14 02:29:09;;;;;;;10.10;3.50;;;;;;;15.01;65.47;99288.10;434544;1268;68428;-55
2022/07/14 02:39:16;;;;;;;8.00;3.30;;;;;;;14.86;66.08;99295.83;434391;1267;71355;-56
2022/07/14 02:49:21;;;;;;;6.50;2.70;;;;;;;14.78;66.35;99305.34;441284;1266;60568;-54
2022/07/14 02:59:28;;;;;;;6.50;3.90;;;;;;;14.79;66.70;99308.75;434329;1266;60717;-55
2022/07/14 03:09:33;;;;;;;6.00;3.30;;;;;;;14.88;66.72;99315.94;435729;1267;72881;-57
2022/07/14 03:19:39;;;;;;;16.80;4.60;;;;;;;15.14;66.90;99316.88;434173;1268;68798;-57
2022/07/14 03:29:45;;;;;;;5.40;2.70;;;;;;;16.14;66.39;99319.35;434427;1268;72570;-56
2022/07/14 03:39:51;;;;;;;6.40;3.90;;;;;;;16.43;64.99;99316.35;434787;1267;60508;-56
2022/07/14 03:49:58;;;;;;;8.80;4.10;;;;;;;16.73;64.67;99318.84;435041;1268;60577;-56
2022/07/14 04:00:06;;;;;;;9.40;3.50;;;;;;;17.21;64.15;99331.31;434541;1268;74066;-55
2022/07/14 04:10:12;;;;;;;8.60;4.50;;;;;;;17.51;63.88;99336.65;436083;1267;69830;-58
2022/07/14 04:20:18;;;;;;;36.40;7.30;;;;;;;17.66;64.04;99339.08;433984;1267;72120;-58
2022/07/14 04:30:24;;;;;;;5.30;3.00;;;;;;;18.55;63.65;99348.75;433900;1267;60584;-54
2022/07/14 04:40:30;;;;;;;22.60;4.70;;;;;;;19.78;61.76;99351.52;434036;1267;60658;-57
2022/07/14 05:01:00;;;;;;;5.40;2.30;;;;;;;24.72;55.21;99347.10;434469;1267;68508;-57
2022/07/14 05:11:07;;;;;;;6.10;2.80;;;;;;;30.23;47.40;99343.52;433574;1267;71934;-56
2022/07/14 05:21:14;;;;;;;5.10;2.90;;;;;;;33.94;39.92;99338.52;433317;1267;60982;-55
2022/07/14 05:31:20;;;;;;;9.50;2.60;;;;;;;35.71;35.94;99339.27;433970;1265;60908;-56
2022/07/14 05:41:26;;;;;;;5.30;2.40;;;;;;;38.16;32.63;99339.48;433903;1265;74630;-57
2022/07/14 05:51:33;;;;;;;3.80;2.20;;;;;;;39.34;29.93;99348.11;433589;1265;62157;-56
2022/07/14 06:01:39;;;;;;;4.10;1.70;;;;;;;42.15;27.08;99346.58;451372;1264;62800;-57
2022/07/14 06:11:45;;;;;;;3.40;1.70;;;;;;;43.91;24.22;99350.28;451398;1265;58620;-57
2022/07/14 06:21:51;;;;;;;2.70;1.30;;;;;;;42.57;22.32;99354.03;438660;1265;60601;-57
2022/07/14 06:31:57;;;;;;;5.30;1.50;;;;;;;41.84;22.55;99363.08;448759;1266;64177;-57
2022/07/14 06:42:03;;;;;;;6.10;2.00;;;;;;;41.00;22.67;99366.41;441691;1266;60901;-57
2022/07/14 06:52:09;;;;;;;5.90;1.70;;;;;;;39.29;23.10;99371.91;434212;1268;62864;-56
2022/07/14 07:02:15;;;;;;;4.70;1.30;;;;;;;39.04;23.49;99382.31;434000;1268;62219;-59
2022/07/14 07:12:21;;;;;;;3.30;1.20;;;;;;;36.79;24.36;99386.74;434068;1265;60580;-57
2022/07/14 07:22:27;;;;;;;1.20;1.10;;;;;;;34.38;26.72;99387.55;434172;1266;72850;-56
2022/07/14 07:32:33;;;;;;;1.70;1.20;;;;;;;33.74;26.87;99384.98;434112;1268;68432;-56
2022/07/14 07:42:39;;;;;;;5.00;1.20;;;;;;;36.91;25.58;99388.80;439879;1266;71370;-55
2022/07/14 07:52:44;;;;;;;3.70;1.00;;;;;;;37.22;23.86;99389.77;434649;1268;60575;-57
2022/07/14 08:02:53;;;;;;;0.70;0.70;;;;;;;38.36;23.69;99386.27;435313;1268;60551;-58
2022/07/14 08:13:00;;;;;;;4.10;1.40;;;;;;;35.68;24.71;99379.75;435281;1267;73784;-57
2022/07/14 08:23:06;;;;;;;2.70;1.10;;;;;;;32.35;27.55;99370.60;435067;1266;68454;-58
2022/07/14 08:33:12;;;;;;;3.10;1.50;;;;;;;31.39;29.12;99366.69;435176;1268;71563;-58
2022/07/14 08:43:19;;;;;;;1.10;0.80;;;;;;;29.96;30.60;99359.83;435231;1267;60896;-58
2022/07/14 08:53:27;;;;;;;7.60;1.30;;;;;;;28.79;31.99;99361.97;435489;1268;60575;-57
2022/07/14 09:03:33;;;;;;;2.70;1.10;;;;;;;28.50;32.19;99367.30;435341;1266;72766;-55
2022/07/14 09:14:10;;;;;;;10.60;2.40;;;;;;;28.22;32.12;99364.50;435214;1266;69719;-57
2022/07/14 09:24:16;;;;;;;1.50;0.90;;;;;;;27.97;32.98;99363.89;435053;1268;71671;-58
2022/07/14 09:34:33;;;;;;;2.20;2.00;;;;;;;27.87;33.29;99357.52;435759;1268;61015;-59
2022/07/14 09:44:46;;;;;;;5.80;1.50;;;;;;;27.84;33.55;99356.45;435808;1268;60680;-59
2022/07/14 09:54:52;;;;;;;1.60;0.90;;;;;;;27.93;33.54;99363.39;434904;1268;72799;-59
2022/07/14 10:05:01;;;;;;;3.20;1.00;;;;;;;28.31;34.07;99358.98;434724;1268;68770;-57
2022/07/14 10:15:12;;;;;;;3.20;1.90;;;;;;;28.50;33.94;99355.66;435322;1266;72709;-58
2022/07/14 10:25:18;;;;;;;2.50;1.30;;;;;;;28.33;34.10;99351.91;435435;1268;60997;-57
2022/07/14 10:35:42;;;;;;;4.40;1.50;;;;;;;27.50;34.93;99344.31;435601;1266;60693;-55
2022/07/14 10:45:53;;;;;;;3.70;1.70;;;;;;;27.32;35.46;99341.02;435763;1268;71677;-58
2022/07/14 10:55:59;;;;;;;4.50;1.90;;;;;;;26.88;35.74;99330.39;435902;1268;68875;-59
2022/07/14 11:06:17;;;;;;;2.80;1.00;;;;;;;27.05;35.87;99326.92;435612;1267;71634;-56
2022/07/14 11:16:59;;;;;;;4.20;1.50;;;;;;;27.06;35.42;99337.27;435435;1268;61095;-57
2022/07/14 11:27:28;;;;;;;3.60;1.10;;;;;;;27.34;35.16;99334.70;435065;1266;324932;-59
2022/07/14 11:37:54;;;;;;;2.40;0.90;;;;;;;27.07;35.09;99337.62;435196;1268;73877;-58
2022/07/14 11:48:01;;;;;;;5.20;1.10;;;;;;;27.14;35.43;99338.48;435331;1268;68408;-56
2022/07/14 11:58:08;;;;;;;5.00;1.50;;;;;;;26.93;35.49;99325.99;435404;1266;71551;-58
2022/07/14 12:08:14;;;;;;;4.30;1.10;;;;;;;26.78;35.94;99313.04;435353;1267;60575;-59
2022/07/14 12:18:21;;;;;;;4.10;1.20;;;;;;;26.88;35.81;99309.02;435307;1267;60752;-60
2022/07/14 12:28:27;;;;;;;11.50;1.90;;;;;;;27.11;35.61;99298.98;435450;1267;72607;-59
2022/07/14 12:38:36;;;;;;;3.70;1.60;;;;;;;26.37;35.38;99292.29;434976;1268;70602;-58
2022/07/14 12:48:59;;;;;;;2.50;1.40;;;;;;;26.23;35.78;99301.95;435704;1267;70689;-59
2022/07/14 12:59:10;;;;;;;4.90;1.70;;;;;;;26.37;34.71;99291.84;435115;1267;60538;-58
2022/07/14 13:09:27;;;;;;;2.60;1.30;;;;;;;26.10;34.59;99283.98;434994;1266;60596;-56
2022/07/14 13:19:32;;;;;;;1.70;1.00;;;;;;;25.84;34.26;99270.41;435496;1268;72819;-58
2022/07/14 13:29:41;;;;;;;2.30;1.10;;;;;;;25.54;34.57;99265.50;435035;1265;67446;-59
2022/07/14 13:39:47;;;;;;;1.80;1.00;;;;;;;25.46;34.61;99268.20;435127;1267;71696;-58
2022/07/14 14:00:16;;;;;;;2.30;0.80;;;;;;;25.28;33.60;99255.23;435673;1266;60737;-58
2022/07/14 14:10:23;;;;;;;1.20;0.90;;;;;;;25.14;33.53;99250.35;439168;1267;72946;-57
2022/07/14 14:20:28;;;;;;;2.70;1.20;;;;;;;25.03;33.09;99236.77;434730;1268;69037;-57
2022/07/14 14:30:35;;;;;;;4.20;1.10;;;;;;;25.11;32.47;99231.63;434439;1267;72909;-56
2022/07/14 14:40:43;;;;;;;1.70;0.90;;;;;;;25.03;31.28;99226.34;434855;1267;61070;-57
2022/07/14 14:50:48;;;;;;;2.00;1.20;;;;;;;24.87;31.77;99219.79;435239;1266;60581;-58
2022/07/14 15:00:54;;;;;;;3.60;1.10;;;;;;;24.80;31.11;99217.48;434990;1268;74487;-57
2022/07/14 15:11:00;;;;;;;5.60;1.10;;;;;;;24.70;30.48;99213.81;435129;1266;68320;-58
2022/07/14 15:21:07;;;;;;;2.50;0.90;;;;;;;24.72;30.61;99199.66;435308;1268;71617;-59
2022/07/14 15:31:15;;;;;;;2.40;0.90;;;;;;;24.69;31.04;99196.60;435530;1267;60945;-60
2022/07/14 15:41:22;;;;;;;1.80;0.80;;;;;;;24.68;31.02;99188.83;435611;1267;60977;-57
2022/07/14 15:51:27;;;;;;;2.30;0.90;;;;;;;24.63;30.77;99186.95;435327;1268;72846;-59
2022/07/14 16:01:34;;;;;;;2.30;1.20;;;;;;;24.57;30.77;99176.77;435374;1268;69752;-57
2022/07/14 16:11:40;;;;;;;2.70;1.20;;;;;;;24.54;30.60;99169.30;434872;1267;72731;-60
2022/07/14 16:21:47;;;;;;;1.50;0.90;;;;;;;24.41;30.57;99161.67;435132;1267;60580;-57
2022/07/14 16:31:52;;;;;;;3.10;1.40;;;;;;;24.23;30.03;99162.04;435240;1267;60898;-57
2022/07/14 16:42:00;;;;;;;5.50;0.90;;;;;;;24.17;30.65;99148.93;434921;1266;72649;-58
2022/07/14 16:52:07;;;;;;;2.70;1.10;;;;;;;24.06;30.64;99125.71;434865;1267;69602;-58
2022/07/14 17:02:13;;;;;;;1.10;0.80;;;;;;;23.79;30.41;99110.41;435054;1267;73695;-58
2022/07/14 17:12:19;;;;;;;1.20;1.00;;;;;;;23.69;30.58;99101.31;441398;1266;60667;-56
2022/07/14 17:22:25;;;;;;;3.00;0.90;;;;;;;23.55;30.43;99082.88;434549;1267;60511;-55
2022/07/14 17:32:31;;;;;;;7.60;2.50;;;;;;;23.44;30.73;99078.18;434732;1266;72840;-58
2022/07/14 17:42:37;;;;;;;1.30;0.60;;;;;;;23.33;31.15;99072.54;434517;1267;67930;-58
2022/07/14 17:52:43;;;;;;;2.90;1.10;;;;;;;23.17;31.00;99062.87;434645;1267;71595;-58
2022/07/14 18:02:49;;;;;;;9.00;1.40;;;;;;;22.92;31.13;99063.70;434692;1266;62108;-58
2022/07/14 18:12:55;;;;;;;6.60;1.40;;;;;;;22.70;31.45;99046.36;434331;1267;60998;-56
2022/07/14 18:23:01;;;;;;;8.40;2.50;;;;;;;22.44;31.96;99045.21;443163;1266;74036;-56
2022/07/14 18:33:07;;;;;;;6.10;1.90;;;;;;;22.23;32.21;99028.36;434378;1266;68406;-57
2022/07/14 18:43:13;;;;;;;6.90;1.40;;;;;;;22.04;32.63;99020.33;434467;1267;71247;-62
2022/07/14 18:53:18;;;;;;;9.70;1.60;;;;;;;21.90;32.98;99022.17;434688;1267;60660;-58
2022/07/14 19:03:24;;;;;;;10.60;2.20;;;;;;;21.58;33.48;99036.34;434457;1267;61052;-56
2022/07/14 19:13:31;;;;;;;11.40;2.10;;;;;;;21.33;34.00;99039.73;434169;1268;72988;-56
2022/07/14 19:23:37;;;;;;;17.50;3.50;;;;;;;21.20;34.88;99059.31;434692;1265;68491;-57
2022/07/14 19:33:43;;;;;;;9.50;3.30;;;;;;;21.10;35.51;99062.94;434020;1265;71627;-54
2022/07/14 19:43:49;;;;;;;12.50;2.50;;;;;;;20.90;36.47;99078.57;434113;1267;60888;-53
2022/07/14 19:53:56;;;;;;;11.10;1.90;;;;;;;20.72;37.10;99067.96;434111;1266;60638;-56
2022/07/14 20:04:04;;;;;;;9.40;3.00;;;;;;;20.51;38.40;99073.52;434458;1266;74076;-55
2022/07/14 20:14:11;;;;;;;8.70;2.70;;;;;;;20.47;37.36;99036.12;436941;1265;67555;-55
2022/07/14 20:24:21;;;;;;;3.90;1.20;;;;;;;20.38;37.15;99045.64;433916;1266;71929;-56
2022/07/14 20:34:27;;;;;;;3.00;1.20;;;;;;;20.24;37.51;99028.70;432820;1267;60773;-58
2022/07/14 20:44:33;;;;;;;1.70;1.20;;;;;;;20.12;38.06;99061.44;432989;1267;61284;-55
2022/07/14 20:54:39;;;;;;;3.70;1.50;;;;;;;20.01;38.62;99092.12;433748;1267;72832;-58
2022/07/14 21:04:46;;;;;;;4.70;1.10;;;;;;;19.86;39.11;99094.94;434259;1266;69682;-57
2022/07/14 21:14:52;;;;;;;2.00;1.50;;;;;;;19.64;39.54;99052.85;442536;1266;71504;-55
2022/07/14 21:24:58;;;;;;;3.00;1.30;;;;;;;19.41;39.87;99029.20;439487;1266;60582;-57
2022/07/14 21:35:05;;;;;;;5.90;2.80;;;;;;;19.28;40.28;99071.24;434810;1268;60644;-59
2022/07/14 21:45:12;;;;;;;2.60;1.10;;;;;;;19.17;41.29;99107.41;434221;1267;73950;-57
2022/07/14 21:55:19;;;;;;;2.80;1.20;;;;;;;18.92;42.07;99071.88;437140;1267;67522;-54
2022/07/14 22:05:25;;;;;;;4.70;1.60;;;;;;;18.61;42.96;99095.07;434663;1267;73343;-60
2022/07/14 22:15:31;;;;;;;3.20;1.10;;;;;;;18.39;43.23;99121.27;437406;1266;60702;-55
2022/07/14 22:25:38;;;;;;;4.10;1.00;;;;;;;18.23;43.13;99114.23;433457;1267;60585;-54
2022/07/14 22:35:43;;;;;;;2.40;1.10;;;;;;;18.09;43.48;99130.86;434451;1266;73226;-53
2022/07/14 22:45:49;;;;;;;1.50;0.90;;;;;;;17.91;43.85;99137.88;434666;1265;69147;-55
2022/07/14 22:55:55;;;;;;;1.90;0.80;;;;;;;17.71;44.76;99135.41;434744;1266;72802;-55
2022/07/14 23:06:01;;;;;;;2.60;0.90;;;;;;;17.49;45.48;99148.23;434306;1267;60685;-55
2022/07/14 23:16:10;;;;;;;3.00;1.30;;;;;;;17.36;45.70;99170.23;434285;1267;60635;-55
2022/07/14 23:26:16;;;;;;;2.30;1.10;;;;;;;17.22;46.21;99179.40;434646;1266;324550;-53
2022/07/14 23:36:22;;;;;;;3.90;1.20;;;;;;;17.09;46.49;99179.75;436695;1266;68721;-55
2022/07/14 23:46:28;;;;;;;3.10;0.80;;;;;;;17.00;46.81;99192.44;434516;1266;71589;-53
2022/07/14 23:56:34;;;;;;;1.30;1.10;;;;;;;16.92;47.16;99199.02;434512;1266;60766;-55
